createdAt,value
2023-04-15T00:03:50.211Z,22.6
2023-04-15T00:09:41.143Z,22.9
2023-04-15T00:15:17.040Z,23.6
2023-04-15T00:21:09.821Z,23.3
2023-04-15T00:27:00.409Z,23
2023-04-15T00:32:52.590Z,22.9
2023-04-15T00:38:43.994Z,22.7
2023-04-15T00:44:19.948Z,23.1
2023-04-15T00:50:12.487Z,23.6
2023-04-15T00:56:04.588Z,23.2
2023-04-15T01:01:55.682Z,22.9
2023-04-15T01:07:33.665Z,22.8
2023-04-15T01:13:25.129Z,22.8
2023-04-15T01:19:17.093Z,23.3
2023-04-15T01:25:08.887Z,23.5
2023-04-15T01:31:00.450Z,23.2
2023-04-15T01:36:51.910Z,23
2023-04-15T01:42:43.811Z,22.9
2023-04-15T01:48:36.040Z,22.9
2023-04-15T01:54:26.538Z,23.5
2023-04-15T02:00:03.214Z,23.4
2023-04-15T02:05:40.440Z,23.2
2023-04-15T02:11:31.968Z,23
2023-04-15T02:17:23.342Z,22.9
2023-04-15T02:23:15.514Z,22.9
2023-04-15T02:28:38.336Z,23.5
2023-04-15T02:34:30.541Z,23.5
2023-04-15T02:40:22.004Z,23.2
2023-04-15T02:46:13.394Z,22.8
2023-04-15T02:52:05.525Z,22.7
2023-04-15T02:57:56.956Z,22.6
2023-04-15T03:03:49.735Z,22.6
2023-04-15T03:09:41.434Z,22.9
2023-04-15T03:15:32.891Z,23.6
2023-04-15T03:21:24.098Z,23.4
2023-04-15T03:27:15.960Z,23
2023-04-15T03:33:07.563Z,22.7
2023-04-15T03:38:44.014Z,22.6
2023-04-15T03:44:20.590Z,22.4
2023-04-15T03:50:28.230Z,22.4
2023-04-15T03:56:18.854Z,22.4
2023-04-15T04:02:10.332Z,22.8
2023-04-15T04:08:03.758Z,23.5
2023-04-15T04:13:54.690Z,23.4
2023-04-15T04:19:46.656Z,23
2023-04-15T04:25:22.470Z,22.7
2023-04-15T04:30:58.991Z,22.5
2023-04-15T04:36:51.113Z,22.3
2023-04-15T04:42:42.761Z,22.3
2023-04-15T04:48:34.556Z,22.3
2023-04-15T04:54:26.041Z,22.6
2023-04-15T05:00:17.887Z,23.3
2023-04-15T05:06:10.597Z,23.3
2023-04-15T05:11:46.748Z,22.9
2023-04-15T05:17:40.724Z,22.6
2023-04-15T05:23:34.182Z,22.4
2023-04-15T05:29:26.977Z,22.2
2023-04-15T05:35:18.353Z,22.2
2023-04-15T05:41:10.179Z,22.1
2023-04-15T05:47:02.609Z,22.4
2023-04-15T05:52:54.945Z,23.1
2023-04-15T05:58:48.252Z,23.3
2023-04-15T06:04:26.176Z,23
2023-04-15T06:09:46.917Z,22.8
2023-04-15T06:15:23.371Z,22.7
2023-04-15T06:21:15.871Z,22.8
2023-04-15T06:27:08.142Z,23.4
2023-04-15T06:32:29.271Z,23.2
2023-04-15T06:38:21.819Z,22.9
2023-04-15T06:43:59.275Z,22.8
2023-04-15T06:49:35.647Z,22.7
2023-04-15T06:55:27.281Z,23.2
2023-04-15T07:01:18.360Z,23.3
2023-04-15T07:06:54.309Z,23
2023-04-15T07:12:45.502Z,22.9
2023-04-15T07:18:39.656Z,22.8
2023-04-15T07:24:30.821Z,22.6
2023-04-15T07:30:23.599Z,22.6
2023-04-15T07:36:14.890Z,22.5
2023-04-15T07:42:05.848Z,22.4
2023-04-15T07:47:59.919Z,22.4
2023-04-15T07:53:53.325Z,22.4
2023-04-15T07:59:44.966Z,22.3
2023-04-15T08:05:24.978Z,22.2
2023-04-15T08:11:16.611Z,22.2
2023-04-15T08:16:52.734Z,22.1
2023-04-15T08:22:50.581Z,22.1
2023-04-15T08:28:43.010Z,21.9
2023-04-15T08:34:34.065Z,21.9
2023-04-15T08:40:11.589Z,21.9
2023-04-15T08:45:47.266Z,21.8
2023-04-15T08:51:25.033Z,21.7
2023-04-15T08:57:16.597Z,21.7
2023-04-15T09:03:08.311Z,21.6
2023-04-15T09:09:00.028Z,21.5
2023-04-15T09:14:54.384Z,21.4
2023-04-15T09:20:45.554Z,21.3
2023-04-15T09:26:38.795Z,21.3
2023-04-15T09:32:31.214Z,21.2
2023-04-15T09:38:36.915Z,21.2
2023-04-15T09:49:52.723Z,21.1
2023-04-15T09:55:57.808Z,21
2023-04-15T10:01:34.453Z,20.9
2023-04-15T10:07:12.351Z,20.9
2023-04-15T10:13:03.637Z,20.9
2023-04-15T10:18:39.604Z,20.8
2023-04-15T10:24:02.391Z,20.8
2023-04-15T10:29:22.883Z,20.8
2023-04-15T10:35:14.329Z,20.8
2023-04-15T10:41:05.426Z,20.7
2023-04-15T10:46:41.902Z,20.7
2023-04-15T10:52:17.585Z,20.6
2023-04-15T10:58:08.403Z,20.6
2023-04-15T11:03:45.683Z,20.6
2023-04-15T11:09:37.727Z,20.6
2023-04-15T11:15:29.521Z,20.6
2023-04-15T11:21:21.950Z,20.5
2023-04-15T11:27:27.306Z,20.5
2023-04-15T11:33:04.075Z,20.5
2023-04-15T11:38:55.559Z,20.5
2023-04-15T11:44:59.517Z,20.4
2023-04-15T11:50:05.300Z,20.4
2023-04-15T11:55:26.303Z,20.4
2023-04-15T12:01:08.329Z,20.4
2023-04-15T12:06:48.401Z,20.4
2023-04-15T12:12:39.319Z,20.4
2023-04-15T12:18:57.493Z,20.4
2023-04-15T12:24:48.643Z,20.4
2023-04-15T12:30:39.836Z,20.4
2023-04-15T12:36:18.721Z,20.4
2023-04-15T12:41:40.882Z,20.3
2023-04-15T12:47:32.197Z,20.3
2023-04-15T12:53:23.490Z,20.3
2023-04-15T12:58:46.004Z,20.3
2023-04-15T13:04:39.262Z,20.3
2023-04-15T13:10:36.680Z,20.3
2023-04-15T13:16:27.859Z,20.3
2023-04-15T13:22:19.156Z,20.3
2023-04-15T13:28:12.072Z,20.3
2023-04-15T13:34:03.403Z,20.3
2023-04-15T13:39:57.001Z,20.3
2023-04-15T13:45:48.192Z,20.3
2023-04-15T13:51:39.407Z,20.3
2023-04-15T13:58:02.961Z,20.3
2023-04-15T14:03:39.937Z,20.2
2023-04-15T14:09:33.732Z,20.2
2023-04-15T14:15:27.311Z,20.2
2023-04-15T14:21:22.675Z,20.2
2023-04-15T14:27:27.257Z,20.2
2023-04-15T14:33:19.190Z,20.2
2023-04-15T14:39:10.636Z,20.2
2023-04-15T14:45:01.651Z,20.2
2023-04-15T14:50:53.880Z,20.2
2023-04-15T14:56:45.324Z,20.2
2023-04-15T15:02:54.489Z,20.2
2023-04-15T15:08:47.714Z,20.2
2023-04-15T15:15:01.802Z,20.2
2023-04-15T15:21:04.830Z,20.2
2023-04-15T15:26:55.843Z,20.2
2023-04-15T15:32:48.445Z,20.1
2023-04-15T15:38:40.630Z,20.2
2023-04-15T15:44:17.434Z,20.1
2023-04-15T15:50:10.631Z,20.1
2023-04-15T15:55:31.722Z,20.1
2023-04-15T16:01:35.012Z,20.2
2023-04-15T16:07:57.069Z,20.1
2023-04-15T16:13:48.982Z,20.1
2023-04-15T16:19:41.794Z,20.1
2023-04-15T16:25:50.483Z,20.1
2023-04-15T16:32:00.836Z,20.2
2023-04-15T16:37:52.535Z,20.1
2023-04-15T16:43:45.160Z,20.1
2023-04-15T16:49:36.207Z,20.2
2023-04-15T16:55:29.220Z,20.2
2023-04-15T17:01:52.330Z,20.2
2023-04-15T17:07:46.754Z,20.2
2023-04-15T17:13:37.847Z,20.2
2023-04-15T17:19:30.344Z,20.2
2023-04-15T17:24:50.327Z,20.1
2023-04-15T17:30:42.784Z,20.1
2023-04-15T17:37:35.246Z,20.1
2023-04-15T17:43:26.479Z,20.1
2023-04-15T17:49:18.953Z,20.1
2023-04-15T17:55:11.201Z,20.1
2023-04-15T18:01:03.269Z,20.2
2023-04-15T18:06:57.839Z,20.1
2023-04-15T18:12:49.718Z,20.1
2023-04-15T18:18:59.061Z,20.1
2023-04-15T18:24:51.164Z,20.1
2023-04-15T18:30:43.042Z,20.1
2023-04-15T18:36:22.766Z,20.1
2023-04-15T18:41:59.534Z,20.1
2023-04-15T18:47:52.254Z,20.1
2023-04-15T18:53:43.935Z,20.1
2023-04-15T19:00:32.599Z,20.1
2023-04-15T19:06:25.716Z,20.1
2023-04-15T19:12:17.317Z,20.1
2023-04-15T19:18:09.517Z,20.1
2023-04-15T19:24:02.022Z,20.1
2023-04-15T19:29:55.544Z,20.1
2023-04-15T19:35:32.774Z,20.1
2023-04-15T19:41:08.804Z,20.1
2023-04-15T19:46:44.694Z,20.1
2023-04-15T19:52:21.231Z,20.1
2023-04-15T19:58:12.699Z,20.1
2023-04-15T20:04:05.289Z,20.1
2023-04-15T20:09:44.900Z,20.1
2023-04-15T20:16:42.697Z,20.1
2023-04-15T20:22:33.875Z,20.1
2023-04-15T20:28:25.179Z,20.1
2023-04-15T20:34:16.699Z,20.1
2023-04-15T20:40:08.333Z,20.1
2023-04-15T20:46:04.376Z,20.4
2023-04-15T20:52:03.989Z,20.9
2023-04-15T20:57:57.956Z,21.8
2023-04-15T21:03:50.680Z,21.6
2023-04-15T21:09:42.480Z,21.5
2023-04-15T21:15:54.736Z,21.5
2023-04-15T21:21:46.118Z,21.5
2023-04-15T21:27:24.534Z,21.4
2023-04-15T21:33:16.032Z,21.2
2023-04-15T21:39:07.114Z,22.1
2023-04-15T21:44:31.012Z,21.9
2023-04-15T21:51:23.224Z,21.8
2023-04-15T21:57:14.572Z,21.8
2023-04-15T22:03:09.403Z,21.8
2023-04-15T22:09:14.084Z,21.8
2023-04-15T22:15:05.499Z,21.6
2023-04-15T22:20:57.098Z,22.3
2023-04-15T22:27:39.188Z,22.2
2023-04-15T22:33:31.282Z,22.1
2023-04-15T22:39:23.280Z,22
2023-04-15T22:45:14.949Z,22
2023-04-15T22:50:52.044Z,22.1
2023-04-15T22:56:59.259Z,21.8
2023-04-15T23:02:36.234Z,22.3
2023-04-15T23:08:46.958Z,22.4
2023-04-15T23:14:38.060Z,22.3
2023-04-15T23:20:30.157Z,22.2
2023-04-15T23:26:21.112Z,22.2
2023-04-15T23:32:13.251Z,22.2
2023-04-15T23:38:05.067Z,22.2
2023-04-15T23:43:56.486Z,21.9
2023-04-15T23:49:35.390Z,22.4
2023-04-15T23:55:27.042Z,22.6
